createdAt,value
2017-12-17T00:00:22.282Z,101248.26
2017-12-17T00:02:49.911Z,101242.75
2017-12-17T00:05:17.487Z,101243.66
2017-12-17T00:07:45.105Z,101249.38
2017-12-17T00:10:12.755Z,101243.34
2017-12-17T00:12:40.355Z,101248.86
2017-12-17T00:15:07.988Z,101242.37
2017-12-17T00:17:35.621Z,101252.77
2017-12-17T00:20:03.261Z,101253.40
2017-12-17T00:22:30.846Z,101265.16
2017-12-17T00:24:58.503Z,101260.25
2017-12-17T00:27:26.207Z,101264.55
2017-12-17T00:29:53.799Z,101264.05
2017-12-17T00:32:21.427Z,101265.28
2017-12-17T00:34:49.034Z,101259.14
2017-12-17T00:37:16.732Z,101253.95
2017-12-17T00:39:44.390Z,101263.43
2017-12-17T00:42:12.011Z,101254.99
2017-12-17T00:44:39.603Z,101259.07
2017-12-17T00:47:07.315Z,101261.80
2017-12-17T00:49:35.070Z,101255.90
2017-12-17T00:52:02.691Z,101258.76
2017-12-17T00:54:30.262Z,101263.74
2017-12-17T00:56:57.886Z,101265.48
2017-12-17T00:59:25.476Z,101268.13
2017-12-17T01:01:53.103Z,101265.70
2017-12-17T01:04:20.702Z,101270.16
2017-12-17T01:06:48.289Z,101278.42
2017-12-17T01:09:15.927Z,101281.28
2017-12-17T01:11:43.572Z,101286.58
2017-12-17T01:14:11.194Z,101289.23
2017-12-17T01:16:38.862Z,101294.63
2017-12-17T01:19:06.579Z,101300.73
2017-12-17T01:21:34.219Z,101304.92
2017-12-17T01:24:01.905Z,101306.55
2017-12-17T01:26:29.491Z,101302.48
2017-12-17T01:28:57.115Z,101308.89
2017-12-17T01:31:24.739Z,101315.94
2017-12-17T01:33:52.372Z,101314.69
2017-12-17T01:36:19.966Z,101315.83
2017-12-17T01:38:47.606Z,101314.30
2017-12-17T01:41:15.190Z,101322.36
2017-12-17T01:43:42.820Z,101320.30
2017-12-17T01:46:10.462Z,101314.89
2017-12-17T01:48:38.148Z,101317.64
2017-12-17T01:51:05.787Z,101315.09
2017-12-17T01:53:33.411Z,101315.41
2017-12-17T01:56:01.094Z,101311.43
2017-12-17T01:58:28.750Z,101319.06
2017-12-17T02:00:56.413Z,101316.52
2017-12-17T02:03:24.026Z,101322.66
2017-12-17T02:05:51.630Z,101330.70
2017-12-17T02:08:19.254Z,101327.32
2017-12-17T02:10:46.885Z,101331.92
2017-12-17T02:13:14.577Z,101336.90
2017-12-17T02:15:42.259Z,101337.20
2017-12-17T02:18:10.039Z,101339.23
2017-12-17T02:20:37.693Z,101344.30
2017-12-17T02:23:05.426Z,101344.41
2017-12-17T02:25:33.094Z,101349.71
2017-12-17T02:28:00.775Z,101358.08
2017-12-17T02:30:28.503Z,101355.22
2017-12-17T02:32:56.163Z,101355.42
2017-12-17T02:35:23.870Z,101358.17
2017-12-17T02:37:51.532Z,101357.16
2017-12-17T02:40:19.148Z,101361.02
2017-12-17T02:42:46.802Z,101357.05
2017-12-17T02:45:14.431Z,101359.98
2017-12-17T02:47:42.134Z,101363.97
2017-12-17T02:50:09.832Z,101362.64
2017-12-17T02:52:37.494Z,101363.03
2017-12-17T02:55:05.191Z,101369.06
2017-12-17T02:57:32.775Z,101378.33
2017-12-17T03:00:00.406Z,101383.09
2017-12-17T03:02:28.070Z,101380.14
2017-12-17T03:04:55.678Z,101382.48
2017-12-17T03:07:24.909Z,101388.88
2017-12-17T03:09:52.521Z,101386.32
2017-12-17T03:12:20.188Z,101392.22
2017-12-17T03:14:47.988Z,101394.64
2017-12-17T03:17:15.654Z,101396.17
2017-12-17T03:19:43.359Z,101393.80
2017-12-17T03:22:10.971Z,101395.34
2017-12-17T03:24:38.687Z,101397.30
2017-12-17T03:27:06.297Z,101397.69
2017-12-17T03:29:33.955Z,101405.84
2017-12-17T03:32:01.569Z,101409.70
2017-12-17T03:34:29.234Z,101403.52
2017-12-17T03:36:56.839Z,101408.02
2017-12-17T03:39:24.549Z,101402.53
2017-12-17T03:41:52.126Z,101401.41
2017-12-17T03:44:19.771Z,101411.50
2017-12-17T03:46:47.378Z,101407.41
2017-12-17T03:49:15.095Z,101405.89
2017-12-17T03:51:42.683Z,101411.60
2017-12-17T03:54:10.341Z,101414.14
2017-12-17T03:56:37.951Z,101415.89
2017-12-17T03:59:05.543Z,101419.43
2017-12-17T04:01:33.146Z,101425.62
2017-12-17T04:04:00.732Z,101425.92
2017-12-17T04:06:28.375Z,101425.40
2017-12-17T04:08:56.039Z,101425.02
2017-12-17T04:11:23.659Z,101429.17
2017-12-17T04:13:51.231Z,101425.91
2017-12-17T04:16:18.998Z,101428.23
2017-12-17T04:18:46.642Z,101427.09
2017-12-17T04:21:14.302Z,101433.77
2017-12-17T04:23:42.034Z,101429.11
2017-12-17T04:26:09.665Z,101430.93
2017-12-17T04:28:37.341Z,101439.78
2017-12-17T04:31:04.956Z,101443.31
2017-12-17T04:33:32.611Z,101448.09
2017-12-17T04:36:00.338Z,101447.66
2017-12-17T04:38:27.967Z,101452.06
2017-12-17T04:40:55.750Z,101459.92
2017-12-17T04:43:23.426Z,101466.84
2017-12-17T04:45:51.122Z,101473.08
2017-12-17T04:48:18.786Z,101474.91
2017-12-17T04:50:46.486Z,101479.41
2017-12-17T04:53:14.147Z,101483.09
2017-12-17T04:55:41.836Z,101477.25
2017-12-17T04:58:09.469Z,101483.34
2017-12-17T05:00:37.078Z,101472.44
2017-12-17T05:03:04.740Z,101487.75
2017-12-17T05:05:32.362Z,101483.60
2017-12-17T05:07:59.958Z,101484.84
2017-12-17T05:10:27.642Z,101487.27
2017-12-17T05:12:55.210Z,101479.52
2017-12-17T05:15:22.826Z,101490.42
2017-12-17T05:17:50.415Z,101494.31
2017-12-17T05:20:18.023Z,101492.48
2017-12-17T05:22:45.611Z,101497.58
2017-12-17T05:25:13.245Z,101497.80
2017-12-17T05:27:40.882Z,101499.05
2017-12-17T05:30:08.514Z,101501.67
2017-12-17T05:32:36.183Z,101495.95
2017-12-17T05:35:03.913Z,101501.22
2017-12-17T05:37:31.505Z,101505.30
2017-12-17T05:39:59.195Z,101507.95
2017-12-17T05:42:26.867Z,101504.92
2017-12-17T05:44:54.551Z,101504.50
2017-12-17T05:47:22.157Z,101509.61
2017-12-17T05:49:49.770Z,101513.91
2017-12-17T05:52:17.360Z,101518.59
2017-12-17T05:54:44.979Z,101517.91
2017-12-17T05:57:12.546Z,101520.84
2017-12-17T05:59:40.257Z,101521.48
2017-12-17T06:02:07.851Z,101524.25
2017-12-17T06:04:35.474Z,101531.17
2017-12-17T06:07:03.062Z,101528.73
2017-12-17T06:09:30.674Z,101530.99
2017-12-17T06:11:58.251Z,101535.98
2017-12-17T06:14:25.882Z,101540.36
2017-12-17T06:16:53.449Z,101543.47
2017-12-17T06:19:21.056Z,101547.72
2017-12-17T06:21:48.639Z,101549.00
2017-12-17T06:24:16.268Z,101549.08
2017-12-17T06:26:43.864Z,101548.28
2017-12-17T06:29:11.565Z,101555.70
2017-12-17T06:31:39.156Z,101554.70
2017-12-17T06:34:06.783Z,101557.66
2017-12-17T06:36:34.380Z,101554.84
2017-12-17T06:39:01.970Z,101553.92
2017-12-17T06:41:29.597Z,101555.55
2017-12-17T06:43:57.177Z,101555.23
2017-12-17T06:46:24.787Z,101567.76
2017-12-17T06:48:52.374Z,101560.80
2017-12-17T06:51:20.047Z,101567.84
2017-12-17T06:53:47.621Z,101572.71
2017-12-17T06:56:15.253Z,101578.63
2017-12-17T06:58:42.959Z,101580.45
2017-12-17T07:01:10.573Z,101584.55
2017-12-17T07:03:38.221Z,101580.50
2017-12-17T07:06:05.785Z,101586.31
2017-12-17T07:08:33.456Z,101583.84
2017-12-17T07:11:01.138Z,101588.62
2017-12-17T07:13:28.715Z,101589.45
2017-12-17T07:15:56.385Z,101595.16
2017-12-17T07:18:23.940Z,101598.12
2017-12-17T07:20:51.562Z,101608.97
2017-12-17T07:23:19.175Z,101608.50
2017-12-17T07:25:46.869Z,101614.02
2017-12-17T07:28:14.463Z,101622.23
2017-12-17T07:30:42.227Z,101622.17
2017-12-17T07:33:09.810Z,101630.66
2017-12-17T07:35:37.419Z,101631.15
2017-12-17T07:38:05.166Z,101622.35
2017-12-17T07:40:32.850Z,101633.43
2017-12-17T07:43:00.475Z,101640.39
2017-12-17T07:45:28.169Z,101648.34
2017-12-17T07:47:55.746Z,101646.43
2017-12-17T07:50:23.370Z,101665.45
2017-12-17T07:52:51.057Z,101659.55
2017-12-17T07:55:18.682Z,101662.58
2017-12-17T07:57:46.287Z,101673.07
2017-12-17T08:00:13.959Z,101683.63
2017-12-17T08:02:41.646Z,101687.67
2017-12-17T08:05:09.311Z,101690.55
2017-12-17T08:07:37.000Z,101691.55
2017-12-17T08:10:04.575Z,101691.74
2017-12-17T08:12:32.183Z,101691.06
2017-12-17T08:14:59.866Z,101694.45
2017-12-17T08:17:27.596Z,101699.84
2017-12-17T08:19:55.262Z,101694.34
2017-12-17T08:22:22.980Z,101698.81
2017-12-17T08:24:50.574Z,101700.16
2017-12-17T08:27:18.279Z,101702.48
2017-12-17T08:29:45.971Z,101708.30
2017-12-17T08:32:13.601Z,101710.02
2017-12-17T08:34:41.266Z,101726.35
2017-12-17T08:37:08.894Z,101723.55
2017-12-17T08:39:36.495Z,101731.55
2017-12-17T08:42:04.101Z,101739.11
2017-12-17T08:44:31.687Z,101741.08
2017-12-17T08:46:59.374Z,101743.01
2017-12-17T08:49:27.059Z,101750.98
2017-12-17T08:51:54.769Z,101748.63
2017-12-17T08:54:22.339Z,101751.05
2017-12-17T08:56:49.973Z,101747.14
2017-12-17T08:59:17.588Z,101749.41
2017-12-17T09:01:45.166Z,101757.25
2017-12-17T09:04:12.855Z,101757.86
2017-12-17T09:06:40.501Z,101758.80
2017-12-17T09:09:08.145Z,101765.97
2017-12-17T09:11:35.879Z,101770.19
2017-12-17T09:14:03.498Z,101768.26
2017-12-17T09:16:31.151Z,101769.03
2017-12-17T09:18:58.762Z,101770.20
2017-12-17T09:21:26.353Z,101774.30
2017-12-17T09:23:54.040Z,101770.59
2017-12-17T09:26:21.561Z,101782.11
2017-12-17T09:28:49.190Z,101774.75
2017-12-17T09:31:16.778Z,101781.36
2017-12-17T09:33:44.406Z,101785.13
2017-12-17T09:36:12.005Z,101790.40
2017-12-17T09:38:39.744Z,101791.95
2017-12-17T09:41:07.321Z,101791.64
2017-12-17T09:43:34.919Z,101803.01
2017-12-17T09:46:02.547Z,101799.06
2017-12-17T09:48:30.135Z,101791.72
2017-12-17T09:50:57.766Z,101800.47
2017-12-17T09:53:25.347Z,101796.39
2017-12-17T09:55:53.017Z,101802.31
2017-12-17T09:58:20.677Z,101801.80
2017-12-17T10:00:48.297Z,101802.64
2017-12-17T10:03:15.891Z,101798.40
2017-12-17T10:05:43.552Z,101800.34
2017-12-17T10:08:11.140Z,101796.02
2017-12-17T10:10:38.787Z,101799.67
2017-12-17T10:13:06.437Z,101803.31
2017-12-17T10:15:34.039Z,101802.20
2017-12-17T10:18:01.618Z,101806.80
2017-12-17T10:20:29.238Z,101804.54
2017-12-17T10:22:56.852Z,101799.23
2017-12-17T10:25:24.451Z,101802.25
2017-12-17T10:27:52.073Z,101805.52
2017-12-17T10:30:19.690Z,101804.94
2017-12-17T10:32:47.275Z,101803.78
2017-12-17T10:35:14.980Z,101811.38
2017-12-17T10:37:42.568Z,101812.09
2017-12-17T10:40:10.306Z,101805.17
2017-12-17T10:42:37.950Z,101807.44
2017-12-17T10:45:05.586Z,101804.72
2017-12-17T10:47:33.264Z,101796.39
2017-12-17T10:50:00.942Z,101797.19
2017-12-17T10:52:28.579Z,101807.20
2017-12-17T10:54:56.233Z,101804.56
2017-12-17T10:57:23.825Z,101808.40
2017-12-17T10:59:51.427Z,101813.95
2017-12-17T11:02:19.032Z,101822.84
2017-12-17T11:04:46.675Z,101818.97
2017-12-17T11:07:14.246Z,101820.45
2017-12-17T11:09:41.870Z,101827.66
2017-12-17T11:12:09.463Z,101824.17
2017-12-17T11:14:37.150Z,101823.55
2017-12-17T11:17:04.766Z,101822.52
2017-12-17T11:19:32.442Z,101817.16
2017-12-17T11:22:00.119Z,101818.12
2017-12-17T11:24:27.742Z,101815.28
2017-12-17T11:26:55.560Z,101815.48
2017-12-17T11:29:23.307Z,101813.77
2017-12-17T11:31:50.991Z,101810.09
2017-12-17T11:34:18.624Z,101812.05
2017-12-17T11:36:46.370Z,101810.11
2017-12-17T11:39:13.990Z,101808.02
2017-12-17T11:41:41.672Z,101806.34
2017-12-17T11:44:09.343Z,101799.55
2017-12-17T11:46:36.942Z,101798.66
2017-12-17T11:49:04.742Z,101806.14
2017-12-17T11:51:32.450Z,101808.18
2017-12-17T11:54:00.260Z,101805.17
2017-12-17T11:56:27.891Z,101803.66
2017-12-17T11:58:55.504Z,101807.70
2017-12-17T12:01:23.120Z,101803.05
2017-12-17T12:03:50.883Z,101809.19
2017-12-17T12:06:18.583Z,101809.09
2017-12-17T12:08:46.188Z,101806.41
2017-12-17T12:11:13.984Z,101801.43
2017-12-17T12:13:41.593Z,101806.92
2017-12-17T12:16:09.216Z,101805.69
2017-12-17T12:18:36.811Z,101804.17
2017-12-17T12:21:04.450Z,101796.55
2017-12-17T12:23:32.040Z,101798.97
2017-12-17T12:25:59.750Z,101796.71
2017-12-17T12:28:27.470Z,101797.00
2017-12-17T12:30:55.172Z,101794.52
2017-12-17T12:33:22.771Z,101790.73
2017-12-17T12:35:50.412Z,101788.83
2017-12-17T12:38:18.011Z,101788.56
2017-12-17T12:40:45.703Z,101789.41
2017-12-17T12:43:13.286Z,101790.08
2017-12-17T12:45:40.926Z,101784.38
2017-12-17T12:48:08.598Z,101791.72
2017-12-17T12:50:36.300Z,101795.89
2017-12-17T12:53:03.924Z,101805.52
2017-12-17T12:55:31.506Z,101796.03
2017-12-17T12:57:59.206Z,101806.33
2017-12-17T13:00:26.827Z,101805.84
2017-12-17T13:02:54.501Z,101801.42
2017-12-17T13:05:22.106Z,101804.97
2017-12-17T13:07:49.779Z,101807.36
2017-12-17T13:10:17.336Z,101809.74
2017-12-17T13:12:44.958Z,101801.69
2017-12-17T13:15:12.534Z,101804.89
2017-12-17T13:17:40.172Z,101801.44
2017-12-17T13:20:07.751Z,101806.06
2017-12-17T13:22:35.399Z,101801.80
2017-12-17T13:25:02.990Z,101802.16
2017-12-17T13:27:30.622Z,101806.34
2017-12-17T13:29:58.364Z,101806.89
2017-12-17T13:32:25.984Z,101812.09
2017-12-17T13:34:53.588Z,101820.56
2017-12-17T13:37:21.207Z,101820.77
2017-12-17T13:39:48.815Z,101817.91
2017-12-17T13:42:16.426Z,101829.39
2017-12-17T13:44:44.022Z,101823.22
2017-12-17T13:47:11.630Z,101816.87
2017-12-17T13:49:39.270Z,101818.68
2017-12-17T13:52:06.880Z,101824.89
2017-12-17T13:54:34.476Z,101825.31
2017-12-17T13:57:02.142Z,101826.70
2017-12-17T13:59:29.754Z,101835.05
2017-12-17T14:01:57.445Z,101836.27
2017-12-17T14:04:25.059Z,101837.30
2017-12-17T14:06:52.655Z,101838.46
2017-12-17T14:09:20.277Z,101838.20
2017-12-17T14:11:47.875Z,101839.12
2017-12-17T14:14:15.497Z,101842.52
2017-12-17T14:16:43.077Z,101847.02
2017-12-17T14:19:10.715Z,101848.31
2017-12-17T14:21:38.326Z,101846.20
2017-12-17T14:24:05.955Z,101847.50
2017-12-17T14:26:33.615Z,101846.15
2017-12-17T14:29:01.236Z,101858.95
2017-12-17T14:31:28.852Z,101857.13
2017-12-17T14:33:56.462Z,101854.80
2017-12-17T14:36:24.059Z,101860.11
2017-12-17T14:39:11.166Z,101858.42
2017-12-17T14:41:39.653Z,101858.39
2017-12-17T14:44:07.275Z,101870.71
2017-12-17T14:46:34.862Z,101867.69
2017-12-17T14:49:02.497Z,101868.89
2017-12-17T14:51:30.145Z,101874.88
2017-12-17T14:53:57.750Z,101871.09
2017-12-17T14:56:25.358Z,101877.23
2017-12-17T14:58:52.990Z,101890.17
2017-12-17T15:01:20.651Z,101895.89
2017-12-17T15:03:48.292Z,101889.69
2017-12-17T15:06:15.896Z,101891.50
2017-12-17T15:08:43.499Z,101904.47
2017-12-17T15:11:11.082Z,101898.55
2017-12-17T15:13:38.702Z,101905.28
2017-12-17T15:16:06.274Z,101908.41
2017-12-17T15:18:33.919Z,101909.28
2017-12-17T15:21:01.604Z,101900.46
2017-12-17T15:23:29.226Z,101905.28
2017-12-17T15:25:56.861Z,101901.78
2017-12-17T15:28:24.467Z,101906.31
2017-12-17T15:30:52.136Z,101903.44
2017-12-17T15:33:19.939Z,101906.51
2017-12-17T15:35:47.534Z,101905.50
2017-12-17T15:38:15.159Z,101906.70
2017-12-17T15:40:42.758Z,101907.96
2017-12-17T15:43:10.454Z,101894.97
2017-12-17T15:45:38.033Z,101893.45
2017-12-17T15:48:05.776Z,101894.64
2017-12-17T15:50:33.355Z,101892.13
2017-12-17T15:53:01.009Z,101888.63
2017-12-17T15:55:28.609Z,101893.35
2017-12-17T15:57:56.245Z,101897.27
2017-12-17T16:00:23.858Z,101895.55
2017-12-17T16:02:51.475Z,101898.52
2017-12-17T16:05:19.113Z,101895.03
2017-12-17T16:07:46.733Z,101887.11
2017-12-17T16:10:14.314Z,101887.14
2017-12-17T16:12:41.942Z,101894.28
2017-12-17T16:15:09.542Z,101888.34
2017-12-17T16:17:37.141Z,101888.31
2017-12-17T16:20:04.789Z,101885.75
2017-12-17T16:22:32.454Z,101889.08
2017-12-17T16:25:00.082Z,101883.69
2017-12-17T16:27:27.666Z,101874.12
2017-12-17T16:29:55.298Z,101873.92
2017-12-17T16:32:22.945Z,101872.38
2017-12-17T16:34:50.663Z,101870.23
2017-12-17T16:37:18.244Z,101868.53
2017-12-17T16:39:45.882Z,101870.39
2017-12-17T16:42:13.491Z,101869.69
2017-12-17T16:44:41.179Z,101865.32
2017-12-17T16:47:08.894Z,101865.00
2017-12-17T16:49:36.502Z,101871.30
2017-12-17T16:52:04.098Z,101878.55
2017-12-17T16:54:31.846Z,101881.70
2017-12-17T16:56:59.521Z,101884.20
2017-12-17T16:59:27.246Z,101880.39
2017-12-17T17:01:54.851Z,101877.83
2017-12-17T17:04:22.510Z,101877.70
2017-12-17T17:06:50.130Z,101876.99
2017-12-17T17:09:17.730Z,101874.17
2017-12-17T17:11:45.356Z,101877.80
2017-12-17T17:14:13.227Z,101877.25
2017-12-17T17:16:40.814Z,101875.41
2017-12-17T17:19:08.489Z,101873.15
2017-12-17T17:21:36.098Z,101871.98
2017-12-17T17:24:03.706Z,101878.09
2017-12-17T17:26:31.346Z,101859.99
2017-12-17T17:28:59.002Z,101860.86
2017-12-17T17:31:26.625Z,101855.47
2017-12-17T17:33:54.224Z,101851.65
2017-12-17T17:36:21.864Z,101850.05
2017-12-17T17:38:49.477Z,101849.07
2017-12-17T17:41:17.112Z,101838.95
2017-12-17T17:43:44.715Z,101835.47
2017-12-17T17:46:12.362Z,101840.98
2017-12-17T17:48:39.958Z,101837.81
2017-12-17T17:51:07.604Z,101828.55
2017-12-17T17:53:35.225Z,101827.98
2017-12-17T17:56:02.855Z,101828.70
2017-12-17T17:58:30.466Z,101829.41
2017-12-17T18:00:58.078Z,101829.30
2017-12-17T18:03:25.670Z,101825.78
2017-12-17T18:05:53.311Z,101828.84
2017-12-17T18:08:20.906Z,101827.15
2017-12-17T18:10:48.586Z,101827.43
2017-12-17T18:13:16.195Z,101829.74
2017-12-17T18:15:43.838Z,101824.94
2017-12-17T18:18:11.430Z,101830.04
2017-12-17T18:20:39.064Z,101833.34
2017-12-17T18:23:06.733Z,101830.97
2017-12-17T18:25:34.383Z,101831.69
2017-12-17T18:28:01.983Z,101828.69
2017-12-17T18:30:29.599Z,101828.55
2017-12-17T18:32:57.195Z,101828.09
2017-12-17T18:35:24.839Z,101835.30
2017-12-17T18:37:52.443Z,101839.28
2017-12-17T18:40:20.095Z,101833.02
2017-12-17T18:42:47.714Z,101831.48
2017-12-17T18:45:15.474Z,101830.05
2017-12-17T18:47:43.086Z,101829.24
2017-12-17T18:50:10.726Z,101832.90
2017-12-17T18:52:38.371Z,101834.23
2017-12-17T18:55:05.991Z,101834.81
2017-12-17T18:57:33.634Z,101834.92
2017-12-17T19:00:01.373Z,101834.20
2017-12-17T19:02:28.982Z,101826.03
2017-12-17T19:04:56.622Z,101822.37
2017-12-17T19:07:24.501Z,101820.59
2017-12-17T19:09:52.110Z,101816.81
2017-12-17T19:12:19.744Z,101815.03
2017-12-17T19:14:47.358Z,101810.03
2017-12-17T19:17:15.007Z,101813.61
2017-12-17T19:19:42.594Z,101802.67
2017-12-17T19:22:10.374Z,101798.80
2017-12-17T19:24:38.009Z,101797.05
2017-12-17T19:27:05.621Z,101794.80
2017-12-17T19:29:33.226Z,101792.25
2017-12-17T19:32:00.857Z,101786.67
2017-12-17T19:34:28.527Z,101788.39
2017-12-17T19:36:56.147Z,101779.14
2017-12-17T19:39:23.759Z,101777.47
2017-12-17T19:41:51.459Z,101776.39
2017-12-17T19:44:19.051Z,101776.50
2017-12-17T19:46:46.779Z,101775.95
2017-12-17T19:49:14.393Z,101775.85
2017-12-17T19:51:42.023Z,101776.47
2017-12-17T19:54:09.639Z,101778.60
2017-12-17T19:56:37.249Z,101776.05
2017-12-17T19:59:04.969Z,101776.37
2017-12-17T20:01:32.582Z,101779.44
2017-12-17T20:04:00.211Z,101774.31
2017-12-17T20:06:27.844Z,101780.30
2017-12-17T20:08:55.507Z,101769.50
2017-12-17T20:11:23.113Z,101769.59
2017-12-17T20:13:50.863Z,101774.38
2017-12-17T20:16:18.458Z,101758.41
2017-12-17T20:18:46.116Z,101753.03
2017-12-17T20:21:13.734Z,101755.39
2017-12-17T20:23:41.399Z,101749.59
2017-12-17T20:26:09.007Z,101750.03
2017-12-17T20:28:36.751Z,101743.13
2017-12-17T20:31:04.346Z,101734.87
2017-12-17T20:33:32.015Z,101736.64
2017-12-17T20:35:59.607Z,101744.88
2017-12-17T20:38:27.316Z,101737.47
2017-12-17T20:40:55.134Z,101738.28
2017-12-17T20:43:22.808Z,101737.31
2017-12-17T20:45:50.676Z,101736.79
2017-12-17T20:48:18.440Z,101731.00
2017-12-17T20:50:46.070Z,101736.98
2017-12-17T20:53:13.687Z,101733.21
2017-12-17T20:55:41.298Z,101722.00
2017-12-17T20:58:08.942Z,101714.55
2017-12-17T21:00:36.568Z,101710.77
2017-12-17T21:03:04.166Z,101712.75
2017-12-17T21:05:31.781Z,101703.74
2017-12-17T21:07:59.379Z,101703.16
2017-12-17T21:10:27.008Z,101701.41
2017-12-17T21:12:54.649Z,101703.83
2017-12-17T21:15:22.315Z,101703.45
2017-12-17T21:17:49.897Z,101701.27
2017-12-17T21:20:17.542Z,101696.20
2017-12-17T21:22:45.118Z,101691.72
2017-12-17T21:25:12.780Z,101681.48
2017-12-17T21:27:40.439Z,101692.08
2017-12-17T21:30:08.064Z,101685.55
2017-12-17T21:32:35.684Z,101680.78
2017-12-17T21:35:03.318Z,101677.30
2017-12-17T21:37:30.946Z,101674.16
2017-12-17T21:39:58.602Z,101673.13
2017-12-17T21:42:26.268Z,101662.12
2017-12-17T21:44:53.916Z,101667.32
2017-12-17T21:47:21.534Z,101659.27
2017-12-17T21:49:49.133Z,101655.27
2017-12-17T21:52:16.765Z,101648.75
2017-12-17T21:54:44.398Z,101642.00
2017-12-17T21:57:12.026Z,101638.94
2017-12-17T21:59:39.642Z,101638.02
2017-12-17T22:02:07.291Z,101643.01
2017-12-17T22:04:34.935Z,101638.75
2017-12-17T22:07:02.633Z,101633.34
2017-12-17T22:09:30.240Z,101629.66
2017-12-17T22:11:57.940Z,101626.73
2017-12-17T22:14:25.530Z,101615.28
2017-12-17T22:16:53.183Z,101624.25
2017-12-17T22:19:20.802Z,101619.05
2017-12-17T22:21:48.415Z,101619.48
2017-12-17T22:24:16.156Z,101618.27
2017-12-17T22:26:43.855Z,101618.06
2017-12-17T22:29:11.491Z,101608.78
2017-12-17T22:31:39.125Z,101604.89
2017-12-17T22:34:06.724Z,101597.73
2017-12-17T22:36:34.334Z,101594.70
2017-12-17T22:39:01.941Z,101594.08
2017-12-17T22:41:29.675Z,101595.50
2017-12-17T22:43:57.274Z,101587.65
2017-12-17T22:46:24.910Z,101585.53
2017-12-17T22:48:52.503Z,101574.28
2017-12-17T22:51:20.127Z,101571.22
2017-12-17T22:53:47.731Z,101572.77
2017-12-17T22:56:15.331Z,101566.11
2017-12-17T22:58:42.924Z,101554.28
2017-12-17T23:01:10.571Z,101561.20
2017-12-17T23:03:38.167Z,101538.95
2017-12-17T23:06:05.787Z,101564.66
2017-12-17T23:08:33.383Z,101543.60
2017-12-17T23:11:01.027Z,101530.43
2017-12-17T23:13:28.627Z,101529.86
2017-12-17T23:15:56.267Z,101526.24
2017-12-17T23:18:23.951Z,101525.42
2017-12-17T23:20:51.642Z,101525.37
2017-12-17T23:23:19.307Z,101517.73
2017-12-17T23:25:47.002Z,101510.08
2017-12-17T23:28:14.677Z,101500.05
2017-12-17T23:30:42.354Z,101492.77
2017-12-17T23:33:10.003Z,101489.45
2017-12-17T23:35:37.680Z,101494.80
2017-12-17T23:38:05.368Z,101485.42
2017-12-17T23:40:33.080Z,101476.48
2017-12-17T23:43:00.752Z,101467.62
2017-12-17T23:45:28.442Z,101462.12
2017-12-17T23:47:56.115Z,101454.91
2017-12-17T23:50:23.794Z,101448.02
2017-12-17T23:52:51.508Z,101443.20
2017-12-17T23:55:19.296Z,101434.57
2017-12-17T23:57:46.956Z,101433.22
